Vidfoss — V2QK4 — position and weather

sailwx.info

Track history (hours):
 
Tides and Currents Weather Stations Pressure Air Temp Water Temp Dewpoint Dewpoint Depression Visibility Wind Speed Wind Dir Waves Ship Positions

Vidfoss

Last reported at 2015-Sep-01 12:28 UTC. Time now 2015-Sep-02 04:29 UTC.
Position N 67°35' E 014°20'.

Length 93 m; draft 4.8 m.

Type: Cargo ship. MMSI: 305846000.

Date/timePositionNaut miles runAvg speedWind from/ knotsBaromVisibWave heightAir tempDewpointWater temp
2015-Sep-01 12:28N 67°35' E 014°20'1112.3
2015-Sep-01 11:33N 67°24' E 014°27'1312.8
2015-Sep-01 10:33N 67°13' E 014°09'1212.4
2015-Sep-01 09:33N 67°03' E 013°51'1211.5
2015-Sep-01 08:33N 66°55' E 013°29'10611.7
2015-Aug-31 23:30N 65°16' E 011°57'1212.4
2015-Aug-31 22:33N 65°05' E 011°48'1211.9
2015-Aug-31 21:33N 64°57' E 011°28'1212.3
2015-Aug-31 20:33N 64°48' E 011°07'5211.5
2015-Aug-31 16:04N 64°06' E 009°58'612.2
2015-Aug-31 15:33N 64°02' E 009°47'1111.4
2015-Aug-31 14:33N 63°51' E 009°39'2 0.3
2015-Aug-31 08:31N 63°49' E 009°38'1010.7
2015-Aug-31 07:34N 63°40' E 009°29'5612.6
2015-Aug-31 03:09N 63°09' E 007°45'2 4.2
2015-Aug-31 02:33N 63°07' E 007°44'0 0.0
2015-Aug-31 01:33N 63°07' E 007°44'0 0.0
2015-Aug-31 00:33N 63°07' E 007°44'204 7.5
2015-Aug-29 21:29N 59°53' E 005°32'1112.0
2015-Aug-29 20:33N 59°42' E 005°26'1312.8
2015-Aug-29 19:32N 59°31' E 005°13'22 4.5
2015-Aug-29 14:33N 59°09' E 005°20'2 2.2
2015-Aug-29 13:33N 59°09' E 005°16'0 0.0
2015-Aug-29 12:34N 59°09' E 005°16'7 6.5
2015-Aug-29 11:34N 59°07' E 005°28'1211.5
2015-Aug-29 10:34N 59°01' E 005°48'10 9.6
2015-Aug-29 09:33N 58°52' E 005°45'5 4.9
2015-Aug-29 08:33N 58°57' E 005°45'0 0.0
2015-Aug-29 07:34N 58°57' E 005°45'0 0.0
2015-Aug-29 06:34N 58°57' E 005°45'0 0.3
2015-Aug-29 05:34N 58°57' E 005°46'7 6.9
2015-Aug-29 04:34N 59°02' E 005°37'1110.8
2015-Aug-29 03:34N 58°52' E 005°31'26113.0
2015-Aug-28 07:30N 57°09' W 002°02'2 2.0
2015-Aug-28 06:33N 57°09' W 002°05'0 0.0
2015-Aug-28 05:34N 57°09' W 002°05'0 0.0
2015-Aug-28 04:34N 57°09' W 002°05'0 0.0
2015-Aug-28 03:33N 57°09' W 002°05'0 0.0
2015-Aug-28 02:34N 57°09' W 002°05'0 0.0
2015-Aug-28 01:34N 57°09' W 002°05'3 3.0
2015-Aug-28 00:32N 57°09' W 001°60'1 0.9
2015-Aug-27 23:32N 57°08' W 001°60'34512.2
2015-Aug-26 19:09N 52°31' E 003°58'712.3
2015-Aug-26 18:33N 52°31' E 004°10'1212.2
2015-Aug-26 17:33N 52°28' E 004°30'5 5.3
2015-Aug-26 16:33N 52°28' E 004°38'1 0.9
2015-Aug-26 15:33N 52°28' E 004°40'0 0.0
2015-Aug-26 14:33N 52°28' E 004°40'0 0.0
2015-Aug-26 13:31N 52°28' E 004°40'0 0.0
2015-Aug-26 12:32N 52°28' E 004°40'0 0.0
2015-Aug-26 11:32N 52°28' E 004°40'0 0.0
2015-Aug-26 10:33N 52°28' E 004°40'0 0.0
2015-Aug-26 09:31N 52°28' E 004°40'0 0.0
2015-Aug-26 08:31N 52°28' E 004°40'0 0.0
2015-Aug-26 07:32N 52°28' E 004°40'0 0.0
2015-Aug-26 06:30N 52°28' E 004°40'0 0.0
2015-Aug-26 05:33N 52°28' E 004°40'0 0.0
2015-Aug-26 04:31N 52°28' E 004°40'0 0.0
2015-Aug-26 03:31N 52°28' E 004°40'0 0.0
2015-Aug-26 02:32N 52°28' E 004°40'0 0.0
2015-Aug-26 01:33N 52°28' E 004°40'0 0.0
2015-Aug-26 00:33N 52°28' E 004°40'0 0.0
2015-Aug-25 23:31N 52°28' E 004°40'0 0.0
2015-Aug-25 22:32N 52°28' E 004°40'0 0.0
2015-Aug-25 21:29N 52°28' E 004°40'0 0.0
2015-Aug-25 20:33N 52°28' E 004°40'0 0.0
2015-Aug-25 19:33N 52°28' E 004°40'0 0.0
2015-Aug-25 18:31N 52°28' E 004°40'0 0.0
2015-Aug-25 17:32N 52°28' E 004°40'0 0.0
2015-Aug-25 16:32N 52°28' E 004°40'0 0.0
2015-Aug-25 15:33N 52°28' E 004°40'0 0.0
2015-Aug-25 14:31N 52°28' E 004°40'0 0.0
2015-Aug-25 13:31N 52°28' E 004°40'0 0.0
2015-Aug-25 12:32N 52°28' E 004°40'0 0.0
2015-Aug-25 11:33N 52°28' E 004°40'0 0.0
2015-Aug-25 10:33N 52°28' E 004°40'1 0.6
2015-Aug-25 09:34N 52°28' E 004°39'3 3.4
2015-Aug-25 08:34N 52°28' E 004°33'1211.9
2015-Aug-25 07:33N 52°29' E 004°14'8912.8
2015-Aug-25 00:34N 52°55' E 001°53'1313.5
2015-Aug-24 23:34N 53°02' E 001°34'5112.7
2015-Aug-24 19:32N 53°29' E 000°21'1211.9
2015-Aug-24 18:33N 53°35' E 000°04'10 9.5
2015-Aug-24 17:34N 53°38' W 000°11'0 0.1
2015-Aug-24 16:33N 53°38' W 000°11'0 0.0
2015-Aug-24 15:33N 53°38' W 000°11'0 0.0
2015-Aug-24 14:33N 53°38' W 000°11'0 0.0
2015-Aug-24 13:33N 53°38' W 000°11'0 0.0
2015-Aug-24 12:33N 53°38' W 000°11'0 0.0
2015-Aug-24 11:33N 53°38' W 000°11'0 0.0
2015-Aug-24 10:33N 53°38' W 000°11'0 0.0
2015-Aug-24 09:34N 53°38' W 000°11'0 0.0
2015-Aug-24 08:33N 53°38' W 000°11'0 0.0
2015-Aug-24 07:33N 53°38' W 000°11'0 0.0
2015-Aug-24 06:33N 53°38' W 000°11'0 0.0
2015-Aug-24 05:33N 53°38' W 000°11'0 0.2
2015-Aug-24 04:34N 53°38' W 000°11'8 8.2
2015-Aug-24 03:34N 53°35' E 000°02'9 9.4
2015-Aug-24 02:33N 53°35' E 000°18'1211.6
2015-Aug-24 01:33N 53°45' E 000°28'15812.1
2015-Aug-23 12:31N 56°05' E 002°33'1412.3
2015-Aug-23 11:23N 56°18' E 002°45'1112.4
2015-Aug-23 10:30N 56°27' E 002°54'15612.9
2015-Aug-22 22:26N 58°43' E 005°19'1112.4
2015-Aug-22 21:34N 58°52' E 005°30'1110.8
2015-Aug-22 20:34N 59°02' E 005°37'9 8.7
2015-Aug-22 19:34N 58°55' E 005°46'4 3.5
2015-Aug-22 18:33N 58°51' E 005°45'1110.6
2015-Aug-22 17:33N 59°02' E 005°46'1111.4
2015-Aug-22 16:34N 59°07' E 005°27'2611.7
2015-Aug-22 14:20N 59°32' E 005°12'911.8
2015-Aug-22 13:32N 59°40' E 005°22'9 8.9
2015-Aug-22 12:34N 59°47' E 005°33'  
Track history (hours):
 
Tides and Currents Weather Stations Pressure Air Temp Water Temp Dewpoint Dewpoint Depression Visibility Wind Speed Wind Dir Waves Ship Positions

Vidfoss

Last reported at 2015-Sep-01 12:28 UTC. Time now 2015-Sep-02 04:29 UTC.
Position N 67°35' E 014°20'.

Length 93 m; draft 4.8 m.

Type: Cargo ship. MMSI: 305846000.

Date/timePositionNaut miles runAvg speedWind from/ knotsBaromVisibWave heightAir tempDewpointWater temp
2015-Sep-01 12:28N 67°35' E 014°20'1112.3
2015-Sep-01 11:33N 67°24' E 014°27'1312.8
2015-Sep-01 10:33N 67°13' E 014°09'1212.4
2015-Sep-01 09:33N 67°03' E 013°51'1211.5
2015-Sep-01 08:33N 66°55' E 013°29'10611.7
2015-Aug-31 23:30N 65°16' E 011°57'1212.4
2015-Aug-31 22:33N 65°05' E 011°48'1211.9
2015-Aug-31 21:33N 64°57' E 011°28'1212.3
2015-Aug-31 20:33N 64°48' E 011°07'5211.5
2015-Aug-31 16:04N 64°06' E 009°58'612.2
2015-Aug-31 15:33N 64°02' E 009°47'1111.4
2015-Aug-31 14:33N 63°51' E 009°39'2 0.3
2015-Aug-31 08:31N 63°49' E 009°38'1010.7
2015-Aug-31 07:34N 63°40' E 009°29'5612.6
2015-Aug-31 03:09N 63°09' E 007°45'2 4.2
2015-Aug-31 02:33N 63°07' E 007°44'0 0.0
2015-Aug-31 01:33N 63°07' E 007°44'0 0.0
2015-Aug-31 00:33N 63°07' E 007°44'204 7.5
2015-Aug-29 21:29N 59°53' E 005°32'1112.0
2015-Aug-29 20:33N 59°42' E 005°26'1312.8
2015-Aug-29 19:32N 59°31' E 005°13'22 4.5
2015-Aug-29 14:33N 59°09' E 005°20'2 2.2
2015-Aug-29 13:33N 59°09' E 005°16'0 0.0
2015-Aug-29 12:34N 59°09' E 005°16'7 6.5
2015-Aug-29 11:34N 59°07' E 005°28'1211.5
2015-Aug-29 10:34N 59°01' E 005°48'10 9.6
2015-Aug-29 09:33N 58°52' E 005°45'5 4.9
2015-Aug-29 08:33N 58°57' E 005°45'0 0.0
2015-Aug-29 07:34N 58°57' E 005°45'0 0.0
2015-Aug-29 06:34N 58°57' E 005°45'0 0.3
2015-Aug-29 05:34N 58°57' E 005°46'7 6.9
2015-Aug-29 04:34N 59°02' E 005°37'1110.8
2015-Aug-29 03:34N 58°52' E 005°31'26113.0
2015-Aug-28 07:30N 57°09' W 002°02'2 2.0
2015-Aug-28 06:33N 57°09' W 002°05'0 0.0
2015-Aug-28 05:34N 57°09' W 002°05'0 0.0
2015-Aug-28 04:34N 57°09' W 002°05'0 0.0
2015-Aug-28 03:33N 57°09' W 002°05'0 0.0
2015-Aug-28 02:34N 57°09' W 002°05'0 0.0
2015-Aug-28 01:34N 57°09' W 002°05'3 3.0
2015-Aug-28 00:32N 57°09' W 001°60'1 0.9
2015-Aug-27 23:32N 57°08' W 001°60'34512.2
2015-Aug-26 19:09N 52°31' E 003°58'712.3
2015-Aug-26 18:33N 52°31' E 004°10'1212.2
2015-Aug-26 17:33N 52°28' E 004°30'5 5.3
2015-Aug-26 16:33N 52°28' E 004°38'1 0.9
2015-Aug-26 15:33N 52°28' E 004°40'0 0.0
2015-Aug-26 14:33N 52°28' E 004°40'0 0.0
2015-Aug-26 13:31N 52°28' E 004°40'0 0.0
2015-Aug-26 12:32N 52°28' E 004°40'0 0.0
2015-Aug-26 11:32N 52°28' E 004°40'0 0.0
2015-Aug-26 10:33N 52°28' E 004°40'0 0.0
2015-Aug-26 09:31N 52°28' E 004°40'0 0.0
2015-Aug-26 08:31N 52°28' E 004°40'0 0.0
2015-Aug-26 07:32N 52°28' E 004°40'0 0.0
2015-Aug-26 06:30N 52°28' E 004°40'0 0.0
2015-Aug-26 05:33N 52°28' E 004°40'0 0.0
2015-Aug-26 04:31N 52°28' E 004°40'0 0.0
2015-Aug-26 03:31N 52°28' E 004°40'0 0.0
2015-Aug-26 02:32N 52°28' E 004°40'0 0.0
2015-Aug-26 01:33N 52°28' E 004°40'0 0.0
2015-Aug-26 00:33N 52°28' E 004°40'0 0.0
2015-Aug-25 23:31N 52°28' E 004°40'0 0.0
2015-Aug-25 22:32N 52°28' E 004°40'0 0.0
2015-Aug-25 21:29N 52°28' E 004°40'0 0.0
2015-Aug-25 20:33N 52°28' E 004°40'0 0.0
2015-Aug-25 19:33N 52°28' E 004°40'0 0.0
2015-Aug-25 18:31N 52°28' E 004°40'0 0.0
2015-Aug-25 17:32N 52°28' E 004°40'0 0.0
2015-Aug-25 16:32N 52°28' E 004°40'0 0.0
2015-Aug-25 15:33N 52°28' E 004°40'0 0.0
2015-Aug-25 14:31N 52°28' E 004°40'0 0.0
2015-Aug-25 13:31N 52°28' E 004°40'0 0.0
2015-Aug-25 12:32N 52°28' E 004°40'0 0.0
2015-Aug-25 11:33N 52°28' E 004°40'0 0.0
2015-Aug-25 10:33N 52°28' E 004°40'1 0.6
2015-Aug-25 09:34N 52°28' E 004°39'3 3.4
2015-Aug-25 08:34N 52°28' E 004°33'1211.9
2015-Aug-25 07:33N 52°29' E 004°14'8912.8
2015-Aug-25 00:34N 52°55' E 001°53'1313.5
2015-Aug-24 23:34N 53°02' E 001°34'5112.7
2015-Aug-24 19:32N 53°29' E 000°21'1211.9
2015-Aug-24 18:33N 53°35' E 000°04'10 9.5
2015-Aug-24 17:34N 53°38' W 000°11'0 0.1
2015-Aug-24 16:33N 53°38' W 000°11'0 0.0
2015-Aug-24 15:33N 53°38' W 000°11'0 0.0
2015-Aug-24 14:33N 53°38' W 000°11'0 0.0
2015-Aug-24 13:33N 53°38' W 000°11'0 0.0
2015-Aug-24 12:33N 53°38' W 000°11'0 0.0
2015-Aug-24 11:33N 53°38' W 000°11'0 0.0
2015-Aug-24 10:33N 53°38' W 000°11'0 0.0
2015-Aug-24 09:34N 53°38' W 000°11'0 0.0
2015-Aug-24 08:33N 53°38' W 000°11'0 0.0
2015-Aug-24 07:33N 53°38' W 000°11'0 0.0
2015-Aug-24 06:33N 53°38' W 000°11'0 0.0
2015-Aug-24 05:33N 53°38' W 000°11'0 0.2
2015-Aug-24 04:34N 53°38' W 000°11'8 8.2
2015-Aug-24 03:34N 53°35' E 000°02'9 9.4
2015-Aug-24 02:33N 53°35' E 000°18'1211.6
2015-Aug-24 01:33N 53°45' E 000°28'15812.1
2015-Aug-23 12:31N 56°05' E 002°33'1412.3
2015-Aug-23 11:23N 56°18' E 002°45'1112.4
2015-Aug-23 10:30N 56°27' E 002°54'15612.9
2015-Aug-22 22:26N 58°43' E 005°19'1112.4
2015-Aug-22 21:34N 58°52' E 005°30'1110.8
2015-Aug-22 20:34N 59°02' E 005°37'9 8.7
2015-Aug-22 19:34N 58°55' E 005°46'4 3.5
2015-Aug-22 18:33N 58°51' E 005°45'1110.6
2015-Aug-22 17:33N 59°02' E 005°46'1111.4
2015-Aug-22 16:34N 59°07' E 005°27'2611.7
2015-Aug-22 14:20N 59°32' E 005°12'911.8
2015-Aug-22 13:32N 59°40' E 005°22'9 8.9
2015-Aug-22 12:34N 59°47' E 005°33'  

Dump ship's entire track history